Time;durP1;ratioP1;P1;durP2;ratioP2;P2;SDS_P1;SDS_P2;PMS_P1;PMS_P2;Temp;Humidity;BMP_temperature;BMP_pressure;BME280_temperature;BME280_humidity;BME280_pressure;Samples;Min_cycle;Max_cycle;Signal;HPM_P1;HPM_P2
2022/07/22 00:01:14;;;;;;;10.33;9.63;;;20.50;99.90;;;;;;5036270;28;20181;-73
2022/07/22 00:03:40;;;;;;;9.70;8.93;;;20.50;99.90;;;;;;5054861;28;20184;-73
2022/07/22 00:06:06;;;;;;;9.90;9.20;;;20.60;99.90;;;;;;5036594;28;20197;-73
2022/07/22 00:08:32;;;;;;;8.90;8.23;;;20.60;99.90;;;;;;5054756;28;20174;-73
2022/07/22 00:10:57;;;;;;;9.90;9.20;;;20.60;99.90;;;;;;5054658;28;20227;-73
2022/07/22 00:13:23;;;;;;;9.57;8.87;;;20.60;99.90;;;;;;5055384;28;20416;-73
2022/07/22 00:15:49;;;;;;;9.47;8.67;;;20.60;99.90;;;;;;5053682;28;20205;-73
2022/07/22 00:18:15;;;;;;;8.93;8.23;;;20.60;99.90;;;;;;5037546;28;20641;-73
2022/07/22 00:20:42;;;;;;;8.37;7.77;;;20.60;99.90;;;;;;5053337;28;20271;-73
2022/07/22 00:23:08;;;;;;;8.60;8.00;;;20.60;99.90;;;;;;5055449;28;20507;-73
2022/07/22 00:25:34;;;;;;;8.70;8.00;;;20.60;99.90;;;;;;5054453;28;20515;-73
2022/07/22 00:28:00;;;;;;;9.57;8.77;;;20.50;99.90;;;;;;5055144;28;20770;-73
2022/07/22 00:30:25;;;;;;;8.77;8.07;;;20.60;99.90;;;;;;5052535;28;20216;-73
2022/07/22 00:32:51;;;;;;;9.60;8.70;;;20.60;99.90;;;;;;5054230;28;20216;-73
2022/07/22 00:35:17;;;;;;;9.67;8.87;;;20.60;99.90;;;;;;5055016;28;20194;-73
2022/07/22 00:37:43;;;;;;;9.23;8.50;;;20.60;99.90;;;;;;5053267;28;20196;-73
2022/07/22 00:40:09;;;;;;;9.73;9.03;;;20.60;99.90;;;;;;5054235;28;20185;-73
2022/07/22 00:42:35;;;;;;;7.83;7.23;;;20.60;99.90;;;;;;5053498;28;20178;-73
2022/07/22 00:45:01;;;;;;;6.70;6.30;;;20.60;99.90;;;;;;5054876;28;20435;-73
2022/07/22 00:47:26;;;;;;;6.30;5.90;;;20.60;99.90;;;;;;5052091;28;20220;-73
2022/07/22 00:49:52;;;;;;;5.93;5.43;;;20.60;99.90;;;;;;5053427;28;20784;-73
2022/07/22 00:52:19;;;;;;;6.73;6.23;;;20.60;99.90;;;;;;5055101;28;20182;-73
2022/07/22 00:54:45;;;;;;;7.17;6.57;;;20.60;99.90;;;;;;5053853;28;20260;-73
2022/07/22 00:57:11;;;;;;;7.13;6.73;;;20.50;99.90;;;;;;5054741;28;20864;-73
2022/07/22 00:59:37;;;;;;;8.37;7.77;;;20.50;99.90;;;;;;4999858;28;20197;-73
2022/07/22 01:02:03;;;;;;;9.50;8.60;;;20.50;99.90;;;;;;5054293;28;20178;-73
2022/07/22 01:04:29;;;;;;;9.63;8.80;;;20.50;99.90;;;;;;5054135;28;20545;-73
2022/07/22 01:06:54;;;;;;;9.77;9.07;;;20.50;99.90;;;;;;5053355;28;20519;-73
2022/07/22 01:09:20;;;;;;;10.73;9.80;;;20.50;99.90;;;;;;5052416;28;20653;-73
2022/07/22 01:11:46;;;;;;;11.60;10.60;;;20.50;99.90;;;;;;5053867;28;20249;-73
2022/07/22 01:14:12;;;;;;;11.43;10.53;;;20.40;99.90;;;;;;5053107;28;20532;-73
2022/07/22 01:16:37;;;;;;;10.90;10.10;;;20.40;99.90;;;;;;5053446;28;20728;-73
2022/07/22 01:19:04;;;;;;;12.70;11.60;;;20.50;99.90;;;;;;5054368;28;20276;-73
2022/07/22 01:21:30;;;;;;;11.60;10.70;;;20.40;99.90;;;;;;5051695;28;20232;-73
2022/07/22 01:23:56;;;;;;;13.10;12.00;;;20.40;99.90;;;;;;5051920;28;21186;-73
2022/07/22 01:26:22;;;;;;;12.73;11.70;;;20.40;99.90;;;;;;5044693;28;20448;-73
2022/07/22 01:28:48;;;;;;;12.60;11.50;;;20.40;99.90;;;;;;5037841;28;20424;-73
2022/07/22 01:31:14;;;;;;;12.40;11.47;;;20.40;99.90;;;;;;5053118;28;20185;-73
2022/07/22 01:33:40;;;;;;;12.87;11.73;;;20.30;99.90;;;;;;5053006;28;20174;-73
2022/07/22 01:36:06;;;;;;;11.57;10.57;;;20.30;99.90;;;;;;5053851;28;20653;-73
2022/07/22 01:38:32;;;;;;;10.77;9.97;;;20.30;99.90;;;;;;5053166;28;20424;-72
2022/07/22 01:40:58;;;;;;;10.90;10.00;;;20.30;99.90;;;;;;5052846;28;20473;-73
2022/07/22 01:43:24;;;;;;;10.87;9.90;;;20.30;99.90;;;;;;5053775;28;20181;-73
2022/07/22 01:45:51;;;;;;;10.60;9.70;;;20.30;99.90;;;;;;5051537;28;20821;-73
2022/07/22 01:48:18;;;;;;;10.27;9.47;;;20.30;99.90;;;;;;5053680;28;20308;-73
2022/07/22 01:50:44;;;;;;;11.53;10.63;;;20.30;99.90;;;;;;5051872;28;20436;-72
2022/07/22 01:53:10;;;;;;;12.00;9.90;;;20.30;99.90;;;;;;5053605;28;20412;-73
2022/07/22 01:55:36;;;;;;;11.63;10.70;;;20.30;99.90;;;;;;5034786;28;20801;-73
2022/07/22 01:58:03;;;;;;;11.23;10.30;;;20.30;99.90;;;;;;5053490;28;20423;-73
2022/07/22 02:00:30;;;;;;;13.47;12.37;;;20.30;99.90;;;;;;5016172;28;20444;-73
2022/07/22 02:02:56;;;;;;;11.77;10.87;;;20.30;99.90;;;;;;5052193;28;20434;-73
2022/07/22 02:05:22;;;;;;;13.47;12.37;;;20.20;99.90;;;;;;5052649;28;20838;-73
2022/07/22 02:07:47;;;;;;;12.03;11.00;;;20.30;99.90;;;;;;5052516;28;20204;-73
2022/07/22 02:10:13;;;;;;;12.70;11.50;;;20.30;99.90;;;;;;5051066;28;20236;-73
2022/07/22 02:12:39;;;;;;;12.00;11.00;;;20.20;99.90;;;;;;5051359;28;20696;-73
2022/07/22 02:15:05;;;;;;;12.20;11.10;;;20.30;99.90;;;;;;5051878;28;20464;-73
2022/07/22 02:17:33;;;;;;;11.90;10.80;;;20.30;99.90;;;;;;5017793;28;20623;-73
2022/07/22 02:19:59;;;;;;;12.03;10.93;;;20.30;99.90;;;;;;5033406;28;20664;-73
2022/07/22 02:22:25;;;;;;;12.07;10.97;;;20.30;99.90;;;;;;5053250;28;20543;-73
2022/07/22 02:24:50;;;;;;;12.80;11.60;;;20.20;99.90;;;;;;5034804;28;20177;-73
2022/07/22 02:27:16;;;;;;;12.47;11.37;;;20.20;99.90;;;;;;5053026;28;20645;-73
2022/07/22 02:29:42;;;;;;;12.70;11.60;;;20.30;99.90;;;;;;5049981;28;20186;-73
2022/07/22 02:32:08;;;;;;;12.57;11.47;;;20.20;99.90;;;;;;5034146;28;20436;-73
2022/07/22 02:34:33;;;;;;;12.90;11.80;;;20.20;99.90;;;;;;5052459;28;20299;-73
2022/07/22 02:36:59;;;;;;;13.33;12.17;;;20.20;99.90;;;;;;5051749;28;20236;-73
2022/07/22 02:39:25;;;;;;;13.27;12.17;;;20.20;99.90;;;;;;5051502;28;20200;-73
2022/07/22 02:41:51;;;;;;;12.03;10.83;;;20.20;99.90;;;;;;5051946;28;20185;-73
2022/07/22 02:44:16;;;;;;;13.20;12.20;;;20.20;99.90;;;;;;5051728;28;20178;-73
2022/07/22 02:46:42;;;;;;;14.17;12.83;;;20.20;99.90;;;;;;5052197;28;20213;-73
2022/07/22 02:49:28;;;;;;;12.80;11.50;;;20.20;99.90;;;;;;4989960;28;20562;-73
2022/07/22 02:51:53;;;;;;;13.10;12.00;;;20.20;99.90;;;;;;4990211;28;20419;-73
2022/07/22 02:54:19;;;;;;;13.43;12.27;;;20.10;99.90;;;;;;4990937;28;20191;-73
2022/07/22 02:56:45;;;;;;;12.80;11.57;;;20.10;99.90;;;;;;4989095;28;20290;-73
2022/07/22 02:59:10;;;;;;;11.43;10.47;;;20.10;99.90;;;;;;4974697;28;20202;-73
2022/07/22 03:01:36;;;;;;;11.27;10.37;;;20.10;99.90;;;;;;4988469;28;20180;-73
2022/07/22 03:04:02;;;;;;;13.03;12.03;;;20.10;99.90;;;;;;4989251;28;20206;-73
2022/07/22 03:06:27;;;;;;;14.53;10.93;;;20.10;99.90;;;;;;4940046;28;20678;-72
2022/07/22 03:08:53;;;;;;;12.10;10.60;;;20.10;99.90;;;;;;4989921;28;20188;-72
2022/07/22 03:11:19;;;;;;;11.40;10.40;;;20.10;99.90;;;;;;4971734;28;20552;-72
2022/07/22 03:13:45;;;;;;;11.43;10.43;;;20.10;99.90;;;;;;4988920;28;20183;-72
2022/07/22 03:16:11;;;;;;;11.07;10.07;;;20.10;99.90;;;;;;4990609;28;20319;-72
2022/07/22 03:18:37;;;;;;;9.70;8.73;;;20.10;99.90;;;;;;4972696;28;21783;-72
2022/07/22 03:21:03;;;;;;;8.93;8.20;;;20.10;99.90;;;;;;5031031;28;20483;-72
2022/07/22 03:23:28;;;;;;;8.80;8.10;;;20.10;99.90;;;;;;5070960;28;20176;-72
2022/07/22 03:25:56;;;;;;;8.70;8.00;;;20.10;99.90;;;;;;5050653;28;20188;-72
2022/07/22 03:28:22;;;;;;;8.73;8.03;;;20.10;99.90;;;;;;5051998;28;20174;-71
2022/07/22 03:30:48;;;;;;;9.13;8.43;;;20.10;99.90;;;;;;5065771;28;20457;-72
2022/07/22 03:33:14;;;;;;;9.70;8.80;;;20.10;99.90;;;;;;5070599;28;20835;-71
2022/07/22 03:35:40;;;;;;;9.77;8.90;;;20.00;99.90;;;;;;5071208;28;20243;-72
2022/07/22 03:38:06;;;;;;;11.23;9.97;;;19.90;99.90;;;;;;5072083;28;20173;-71
2022/07/22 03:40:31;;;;;;;9.43;8.73;;;19.90;99.90;;;;;;5070919;28;20469;-72
2022/07/22 03:42:57;;;;;;;11.47;10.37;;;19.90;99.90;;;;;;5071166;28;20412;-71
2022/07/22 03:45:23;;;;;;;11.57;10.23;;;19.90;99.90;;;;;;5070334;28;20188;-72
2022/07/22 03:47:48;;;;;;;10.90;9.90;;;19.80;99.90;;;;;;5071172;28;20177;-71
2022/07/22 03:50:14;;;;;;;11.87;10.67;;;19.90;99.90;;;;;;5070092;28;20636;-72
2022/07/22 03:52:40;;;;;;;11.10;10.00;;;19.90;99.90;;;;;;5070852;28;20173;-71
2022/07/22 03:55:06;;;;;;;11.73;10.53;;;19.90;99.90;;;;;;5071673;28;20197;-72
2022/07/22 03:57:32;;;;;;;11.17;10.10;;;19.90;99.90;;;;;;5070793;28;20189;-72
2022/07/22 03:59:58;;;;;;;10.83;9.73;;;19.90;99.90;;;;;;5069160;28;20607;-72
2022/07/22 04:02:23;;;;;;;12.13;11.07;;;19.90;99.90;;;;;;5069546;28;20181;-72
2022/07/22 04:04:49;;;;;;;12.27;11.07;;;19.90;99.90;;;;;;5071356;28;20185;-72
2022/07/22 04:07:15;;;;;;;10.60;9.60;;;20.00;99.90;;;;;;5070561;28;20179;-71
2022/07/22 04:09:41;;;;;;;11.27;10.17;;;19.90;99.90;;;;;;5068097;28;20633;-71
2022/07/22 04:12:07;;;;;;;12.73;11.43;;;19.90;99.90;;;;;;5066078;28;20435;-70
2022/07/22 04:14:33;;;;;;;11.30;10.03;;;19.90;99.90;;;;;;5069628;28;20177;-70
2022/07/22 04:16:58;;;;;;;12.67;11.53;;;19.90;99.90;;;;;;5071260;28;20731;-71
2022/07/22 04:19:24;;;;;;;12.00;9.73;;;19.90;99.90;;;;;;5068239;28;20258;-72
2022/07/22 04:21:50;;;;;;;11.80;9.80;;;20.00;99.90;;;;;;5055939;28;20705;-72
2022/07/22 04:24:16;;;;;;;9.87;8.70;;;20.30;99.90;;;;;;5049963;28;20637;-71
2022/07/22 04:26:41;;;;;;;9.07;7.83;;;20.60;99.90;;;;;;5052548;28;20638;-71
2022/07/22 04:29:07;;;;;;;10.50;9.57;;;21.10;99.90;;;;;;5054078;28;20185;-71
2022/07/22 04:31:33;;;;;;;8.60;7.80;;;21.40;99.90;;;;;;5053145;28;20189;-71
2022/07/22 04:33:59;;;;;;;9.43;8.23;;;21.70;99.90;;;;;;5045665;28;20185;-72
2022/07/22 04:36:25;;;;;;;10.63;8.30;;;22.00;99.90;;;;;;5052370;28;20193;-71
2022/07/22 04:38:50;;;;;;;8.63;7.80;;;22.30;99.90;;;;;;5053435;28;20432;-71
2022/07/22 04:41:16;;;;;;;8.20;7.40;;;22.30;99.90;;;;;;5053888;28;20457;-71
2022/07/22 04:43:42;;;;;;;8.73;7.33;;;22.40;99.90;;;;;;5054130;28;20196;-71
2022/07/22 04:46:08;;;;;;;8.47;7.67;;;22.50;99.90;;;;;;5050218;28;20829;-71
2022/07/22 04:48:34;;;;;;;8.03;7.20;;;22.50;99.90;;;;;;5054590;28;20671;-71
2022/07/22 04:51:00;;;;;;;10.13;7.50;;;22.50;99.90;;;;;;5054020;28;20209;-71
2022/07/22 04:53:27;;;;;;;8.83;7.00;;;22.50;99.90;;;;;;5054529;28;20173;-71
2022/07/22 04:55:52;;;;;;;9.87;6.20;;;22.50;99.90;;;;;;5051648;28;20474;-71
2022/07/22 04:58:18;;;;;;;7.80;6.20;;;22.50;99.90;;;;;;5053457;28;20511;-72
2022/07/22 05:00:44;;;;;;;8.03;7.00;;;22.50;99.90;;;;;;5052374;28;20676;-72
2022/07/22 05:03:09;;;;;;;11.43;6.87;;;22.50;99.90;;;;;;5053632;28;20224;-71
2022/07/22 05:05:35;;;;;;;9.67;7.10;;;22.50;99.90;;;;;;5048991;28;20683;-70
2022/07/22 05:08:01;;;;;;;7.07;6.47;;;22.60;99.90;;;;;;5050265;28;20255;-70
2022/07/22 05:10:27;;;;;;;7.70;6.40;;;22.70;99.90;;;;;;5053418;28;20186;-70
2022/07/22 05:12:53;;;;;;;9.33;7.30;;;22.70;99.90;;;;;;5052550;28;20210;-70
2022/07/22 05:15:19;;;;;;;8.73;6.40;;;22.80;99.90;;;;;;5054085;28;20494;-71
2022/07/22 05:17:44;;;;;;;9.03;6.80;;;22.90;99.90;;;;;;5050270;28;20440;-72
2022/07/22 05:20:11;;;;;;;8.30;7.27;;;22.90;99.90;;;;;;5051954;28;20243;-71
2022/07/22 05:22:37;;;;;;;7.97;6.90;;;23.00;99.90;;;;;;5031489;28;20226;-71
2022/07/22 05:25:03;;;;;;;7.87;7.20;;;23.10;99.90;;;;;;5030007;28;20441;-72
2022/07/22 05:27:28;;;;;;;8.57;7.27;;;23.10;99.90;;;;;;5029413;28;20206;-71
2022/07/22 05:29:54;;;;;;;6.47;5.90;;;23.10;99.90;;;;;;5010890;28;20482;-72
2022/07/22 05:32:20;;;;;;;7.93;7.27;;;23.10;99.90;;;;;;5030326;28;20194;-72
2022/07/22 05:34:45;;;;;;;11.60;6.43;;;23.10;99.90;;;;;;5030890;28;20662;-72
2022/07/22 05:37:11;;;;;;;8.53;6.67;;;23.10;99.90;;;;;;5030706;28;20226;-71
2022/07/22 05:39:37;;;;;;;7.67;6.87;;;23.20;99.90;;;;;;5031562;28;20189;-71
2022/07/22 05:42:03;;;;;;;7.40;6.80;;;23.20;99.90;;;;;;5030561;28;20264;-71
2022/07/22 05:44:28;;;;;;;6.90;6.20;;;23.20;99.90;;;;;;5030887;28;20182;-71
2022/07/22 05:46:54;;;;;;;11.73;7.00;;;23.30;99.90;;;;;;5028716;28;20186;-72
2022/07/22 05:49:21;;;;;;;7.20;5.73;;;23.30;99.90;;;;;;5026414;28;20226;-73
2022/07/22 05:51:49;;;;;;;6.70;5.70;;;23.30;99.90;;;;;;5029336;28;20190;-72
2022/07/22 05:54:15;;;;;;;7.00;5.43;;;23.40;99.90;;;;;;5061906;28;20522;-71
2022/07/22 05:56:40;;;;;;;7.63;5.93;;;23.30;99.90;;;;;;5067472;28;20220;-71
2022/07/22 05:59:06;;;;;;;6.90;6.20;;;23.30;99.90;;;;;;5069271;28;20189;-70
2022/07/22 06:01:32;;;;;;;6.67;6.00;;;23.30;99.90;;;;;;5068324;28;20707;-71
2022/07/22 06:03:57;;;;;;;7.93;6.20;;;23.20;99.90;;;;;;5069515;28;20200;-72
2022/07/22 06:06:23;;;;;;;7.20;6.33;;;23.10;99.90;;;;;;5066829;28;20177;-73
2022/07/22 06:08:49;;;;;;;7.37;5.97;;;23.10;99.90;;;;;;5073231;28;20180;-73
2022/07/22 06:11:15;;;;;;;9.83;6.90;;;23.10;99.90;;;;;;5072450;28;20250;-73
2022/07/22 06:13:40;;;;;;;8.63;7.47;;;23.10;99.90;;;;;;5064592;28;20182;-72
2022/07/22 06:16:07;;;;;;;8.97;8.03;;;23.00;99.90;;;;;;5064819;28;20351;-72
2022/07/22 06:18:32;;;;;;;8.63;7.93;;;23.00;99.90;;;;;;5071890;28;20851;-73
2022/07/22 06:20:58;;;;;;;9.13;8.43;;;22.90;99.90;;;;;;5057288;28;20496;-72
2022/07/22 06:23:24;;;;;;;10.60;9.07;;;22.90;99.90;;;;;;5046535;28;20602;-73
2022/07/22 06:25:50;;;;;;;9.00;8.10;;;22.90;99.90;;;;;;5048160;28;20180;-73
2022/07/22 06:28:15;;;;;;;9.27;8.37;;;22.80;99.90;;;;;;5049018;28;20780;-73
2022/07/22 06:30:41;;;;;;;9.67;8.77;;;22.80;99.90;;;;;;5053426;28;20186;-73
2022/07/22 06:33:07;;;;;;;11.77;10.60;;;22.80;99.90;;;;;;5044976;28;20189;-73
2022/07/22 06:35:33;;;;;;;10.20;9.40;;;22.80;99.90;;;;;;5051128;28;20262;-73
2022/07/22 06:37:59;;;;;;;9.60;8.67;;;22.80;99.90;;;;;;5035844;28;20444;-73
2022/07/22 06:40:24;;;;;;;14.97;8.80;;;22.80;99.90;;;;;;5016798;28;20254;-73
2022/07/22 06:42:50;;;;;;;9.10;8.17;;;22.80;99.90;;;;;;5045189;28;20197;-73
2022/07/22 06:45:16;;;;;;;9.37;8.37;;;22.80;99.90;;;;;;5032946;28;20184;-76
2022/07/22 06:47:41;;;;;;;11.40;10.47;;;22.70;99.90;;;;;;5049365;28;20660;-74
2022/07/22 06:50:09;;;;;;;8.47;7.43;;;22.70;99.90;;;;;;4967588;28;20212;-73
2022/07/22 06:52:38;;;;;;;9.90;8.77;;;22.70;99.90;;;;;;5039922;28;20186;-73
2022/07/22 06:55:05;;;;;;;11.33;10.43;;;22.60;99.90;;;;;;5049438;28;20439;-72
2022/07/22 06:57:31;;;;;;;9.80;8.00;;;22.70;99.90;;;;;;5050379;28;20490;-73
2022/07/22 06:59:56;;;;;;;8.90;8.10;;;22.70;99.90;;;;;;5048188;28;20433;-72
2022/07/22 07:02:22;;;;;;;9.60;8.60;;;22.70;99.90;;;;;;5046474;28;20174;-72
2022/07/22 07:04:48;;;;;;;11.63;10.47;;;22.70;99.90;;;;;;5049234;28;20182;-72
2022/07/22 07:07:14;;;;;;;8.73;7.53;;;22.60;99.90;;;;;;5049555;28;20440;-73
2022/07/22 07:15:18;;;;;;;6.63;4.90;;;22.80;99.90;;;;;;4959995;23;20546;-73
2022/07/22 07:17:43;;;;;;;5.87;5.47;;;22.90;99.90;;;;;;4916441;29;20470;-71
2022/07/22 07:20:10;;;;;;;8.03;7.20;;;22.90;99.90;;;;;;4916090;29;20193;-73
2022/07/22 07:22:36;;;;;;;7.33;6.70;;;23.10;99.90;;;;;;4916500;29;20205;-71
2022/07/22 07:25:04;;;;;;;6.40;5.90;;;23.10;99.90;;;;;;4915780;29;20426;-73
2022/07/22 07:27:30;;;;;;;5.70;5.20;;;23.20;99.90;;;;;;4876019;29;20684;-71
2022/07/22 07:29:56;;;;;;;6.40;5.87;;;23.20;99.90;;;;;;4876671;29;20489;-72
2022/07/22 07:32:22;;;;;;;9.93;9.03;;;23.20;99.90;;;;;;4875937;29;20421;-70
2022/07/22 07:34:47;;;;;;;7.63;7.00;;;23.20;99.90;;;;;;4871306;29;20188;-71
2022/07/22 07:37:13;;;;;;;6.73;6.30;;;23.20;99.90;;;;;;4839425;29;20258;-72
2022/07/22 07:39:39;;;;;;;6.63;6.03;;;23.30;99.90;;;;;;4858049;29;20714;-72
2022/07/22 07:42:05;;;;;;;7.17;6.50;;;23.30;99.90;;;;;;4863545;29;20191;-72
2022/07/22 07:44:31;;;;;;;7.80;6.20;;;23.30;99.90;;;;;;4875811;29;20557;-71
2022/07/22 07:46:57;;;;;;;6.50;6.07;;;23.30;99.90;;;;;;4876550;29;20436;-70
2022/07/22 07:49:23;;;;;;;6.47;5.97;;;23.30;99.90;;;;;;4877704;29;20196;-69
2022/07/22 07:51:49;;;;;;;6.13;5.50;;;23.30;99.90;;;;;;4882530;29;20428;-70
2022/07/22 07:54:15;;;;;;;6.87;5.40;;;23.30;99.80;;;;;;4878496;29;20864;-70
2022/07/22 07:56:40;;;;;;;6.53;5.30;;;23.40;99.70;;;;;;4878777;29;20468;-69
2022/07/22 07:59:06;;;;;;;10.13;5.80;;;23.40;99.40;;;;;;4903548;29;20229;-70
2022/07/22 08:01:32;;;;;;;10.63;6.40;;;23.40;99.20;;;;;;4918857;29;20194;-68
2022/07/22 08:03:58;;;;;;;7.67;6.50;;;23.30;97.80;;;;;;4918562;29;20194;-68
2022/07/22 08:06:23;;;;;;;8.43;7.73;;;23.20;97.50;;;;;;4926462;29;20515;-68
2022/07/22 08:09:10;;;;;;;6.60;5.30;;;23.00;97.90;;;;;;4896732;29;20210;-70
2022/07/22 08:11:36;;;;;;;5.97;5.37;;;22.70;98.10;;;;;;4897030;29;20864;-67
2022/07/22 08:14:01;;;;;;;8.03;6.10;;;22.50;98.60;;;;;;4913013;29;20584;-69
2022/07/22 08:16:27;;;;;;;6.20;5.60;;;22.10;99.40;;;;;;4898655;29;20221;-70
2022/07/22 08:18:53;;;;;;;7.03;6.33;;;21.70;99.90;;;;;;4897280;29;20191;-69
2022/07/22 08:21:18;;;;;;;7.17;6.30;;;21.40;99.90;;;;;;4897919;29;20677;-69
2022/07/22 08:23:44;;;;;;;12.10;7.03;;;21.00;99.90;;;;;;4898376;29;20262;-69
2022/07/22 08:26:10;;;;;;;8.93;6.90;;;20.80;99.90;;;;;;4898657;29;20426;-69
2022/07/22 08:28:37;;;;;;;9.97;9.17;;;20.50;99.90;;;;;;4899307;29;20203;-69
2022/07/22 08:31:02;;;;;;;7.60;6.40;;;20.40;99.90;;;;;;4914610;29;20442;-69
2022/07/22 08:33:28;;;;;;;10.20;6.40;;;20.20;99.90;;;;;;4901981;29;20186;-69
2022/07/22 08:35:54;;;;;;;9.57;8.47;;;20.20;99.90;;;;;;4898002;29;20227;-69
2022/07/22 08:38:19;;;;;;;7.73;7.00;;;20.10;99.90;;;;;;4896045;29;20195;-72
2022/07/22 08:40:46;;;;;;;7.20;6.53;;;20.00;99.90;;;;;;4895164;29;20203;-69
2022/07/22 08:43:12;;;;;;;8.70;6.40;;;20.00;99.90;;;;;;4900268;29;20175;-69
2022/07/22 08:45:40;;;;;;;7.40;6.70;;;19.90;99.90;;;;;;4899403;29;20431;-69
2022/07/22 08:48:05;;;;;;;8.00;7.20;;;19.90;99.90;;;;;;4900299;29;20186;-70
2022/07/22 08:50:32;;;;;;;6.80;6.20;;;19.90;99.90;;;;;;4916327;29;20529;-69
2022/07/22 08:52:57;;;;;;;8.90;6.70;;;19.90;99.90;;;;;;4919305;29;20265;-69
2022/07/22 08:55:24;;;;;;;9.40;8.17;;;19.90;99.90;;;;;;4918241;29;21017;-69
2022/07/22 08:57:50;;;;;;;8.20;6.37;;;19.90;99.90;;;;;;4918746;29;20779;-69
2022/07/22 09:00:22;;;;;;;7.53;6.83;;;19.80;99.90;;;;;;4914617;29;20438;-70
2022/07/22 09:02:48;;;;;;;10.37;9.67;;;19.90;99.90;;;;;;4917591;29;20435;-69
2022/07/22 09:05:16;;;;;;;8.40;7.03;;;19.80;99.90;;;;;;4932229;29;20937;-67
2022/07/22 09:07:44;;;;;;;6.47;5.83;;;19.70;99.90;;;;;;4919048;29;20457;-67
2022/07/22 09:10:13;;;;;;;7.60;6.90;;;19.70;99.90;;;;;;4916667;29;20477;-68
2022/07/22 09:13:00;;;;;;;9.93;9.10;;;19.70;99.90;;;;;;4917637;29;20430;-68
2022/07/22 09:15:31;;;;;;;8.27;6.33;;;19.80;99.90;;;;;;4916220;29;20497;-68
2022/07/22 09:17:59;;;;;;;9.17;6.60;;;19.70;99.90;;;;;;4917731;29;20442;-68
2022/07/22 09:20:25;;;;;;;8.37;7.43;;;19.70;99.90;;;;;;4917344;29;20434;-68
2022/07/22 09:22:51;;;;;;;9.80;6.97;;;19.70;99.90;;;;;;4918473;29;20493;-68
2022/07/22 09:25:21;;;;;;;8.90;7.47;;;19.70;99.90;;;;;;4917899;29;20413;-69
2022/07/22 09:27:48;;;;;;;10.07;9.27;;;19.70;99.90;;;;;;4916772;29;20801;-71
2022/07/22 09:30:16;;;;;;;7.93;7.03;;;19.70;99.90;;;;;;4915715;29;20438;-68
2022/07/22 09:32:43;;;;;;;11.83;10.20;;;19.80;99.90;;;;;;4917561;29;20434;-68
2022/07/22 09:35:10;;;;;;;7.63;6.90;;;19.70;99.90;;;;;;4918190;29;20537;-68
2022/07/22 09:37:38;;;;;;;10.67;9.77;;;19.80;99.90;;;;;;4917664;29;20410;-67
2022/07/22 09:40:15;;;;;;;8.60;7.07;;;19.80;99.90;;;;;;4917510;29;20434;-67
2022/07/22 09:42:46;;;;;;;7.87;7.10;;;19.90;99.90;;;;;;4917015;29;20611;-68
2022/07/22 09:45:11;;;;;;;10.90;9.90;;;19.90;99.90;;;;;;4917735;29;20941;-68
2022/07/22 09:47:41;;;;;;;9.43;8.27;;;19.90;99.90;;;;;;4932155;29;20805;-68
2022/07/22 09:50:18;;;;;;;8.80;8.07;;;19.90;99.90;;;;;;4917331;29;20229;-68
2022/07/22 09:52:44;;;;;;;9.63;8.80;;;20.00;99.90;;;;;;4884544;29;20418;-68
2022/07/22 09:55:10;;;;;;;8.73;7.40;;;20.00;99.90;;;;;;4917885;29;20411;-68
2022/07/22 09:57:36;;;;;;;8.43;7.63;;;20.00;99.90;;;;;;4916889;29;20981;-68
2022/07/22 10:00:06;;;;;;;8.83;7.97;;;20.10;99.90;;;;;;4917200;29;20209;-68
2022/07/22 10:02:36;;;;;;;8.73;7.40;;;20.10;99.90;;;;;;4917517;29;20458;-68
2022/07/22 10:05:06;;;;;;;8.07;7.27;;;20.10;99.90;;;;;;4917640;29;20415;-68
2022/07/22 10:07:33;;;;;;;10.97;9.90;;;20.10;99.90;;;;;;4917401;29;20840;-68
2022/07/22 10:10:00;;;;;;;9.27;8.47;;;20.20;99.90;;;;;;4916992;29;20439;-68
2022/07/22 10:12:27;;;;;;;8.33;7.63;;;20.20;99.90;;;;;;4917277;29;20418;-68
2022/07/22 10:14:53;;;;;;;8.90;8.20;;;20.20;99.90;;;;;;4897588;29;20476;-68
2022/07/22 10:17:19;;;;;;;9.20;8.23;;;20.20;99.90;;;;;;4937041;29;20474;-68
2022/07/22 10:19:45;;;;;;;9.50;8.67;;;20.30;99.90;;;;;;4917215;29;20434;-67
2022/07/22 10:22:39;;;;;;;10.60;9.70;;;20.20;99.90;;;;;;4931792;29;20423;-68
2022/07/22 10:25:06;;;;;;;13.00;11.80;;;20.30;99.90;;;;;;4916378;29;20514;-68
2022/07/22 10:27:48;;;;;;;10.60;9.70;;;20.30;99.90;;;;;;4916487;29;20418;-66
2022/07/22 10:30:29;;;;;;;11.03;9.87;;;20.30;99.90;;;;;;4915167;29;20493;-68
2022/07/22 10:33:09;;;;;;;13.23;12.20;;;20.40;99.90;;;;;;4916569;29;20446;-68
2022/07/22 10:35:37;;;;;;;10.70;9.60;;;20.40;99.90;;;;;;4916105;29;20470;-68
2022/07/22 10:38:06;;;;;;;10.40;9.40;;;20.40;99.90;;;;;;4916679;29;20529;-68
2022/07/22 10:40:50;;;;;;;11.60;10.60;;;20.40;99.90;;;;;;4916185;29;20925;-68
2022/07/22 10:43:18;;;;;;;13.40;12.10;;;20.40;99.90;;;;;;4916976;29;20414;-68
2022/07/22 10:45:56;;;;;;;12.77;11.77;;;20.40;99.90;;;;;;4895288;29;20911;-68
2022/07/22 10:48:30;;;;;;;12.60;11.43;;;20.40;99.90;;;;;;4894179;29;20435;-74
2022/07/22 10:51:17;;;;;;;10.70;9.70;;;20.40;99.90;;;;;;4894898;29;20454;-68
2022/07/22 10:54:01;;;;;;;11.80;10.70;;;20.50;99.90;;;;;;4895348;29;20923;-67
2022/07/22 10:56:38;;;;;;;11.40;10.40;;;20.50;99.90;;;;;;4895228;29;20470;-68
2022/07/22 10:59:15;;;;;;;13.00;11.90;;;20.50;99.90;;;;;;4895081;29;20803;-70
2022/07/22 11:01:46;;;;;;;13.63;12.53;;;20.60;99.90;;;;;;4895355;29;20423;-67
2022/07/22 11:04:13;;;;;;;14.43;13.23;;;20.60;99.90;;;;;;4895963;29;20446;-68
2022/07/22 11:06:40;;;;;;;11.20;10.10;;;20.70;99.90;;;;;;4895163;29;20435;-67
2022/07/22 11:09:07;;;;;;;12.40;11.40;;;20.80;99.90;;;;;;4895912;29;20568;-68
2022/07/22 11:11:38;;;;;;;11.30;10.27;;;20.90;99.90;;;;;;4894473;29;20459;-68
2022/07/22 11:14:31;;;;;;;11.90;10.80;;;20.90;99.90;;;;;;4895239;29;20562;-68
2022/07/22 11:17:05;;;;;;;13.00;11.90;;;21.00;99.90;;;;;;4907961;29;20486;-66
2022/07/22 11:19:37;;;;;;;11.67;10.67;;;21.00;99.90;;;;;;4911590;29;20458;-68
2022/07/22 11:22:05;;;;;;;12.97;11.67;;;21.10;99.90;;;;;;4914457;29;20440;-67
2022/07/22 11:24:32;;;;;;;14.93;13.63;;;21.00;99.90;;;;;;4915968;29;20509;-68
2022/07/22 11:26:59;;;;;;;11.87;10.97;;;21.10;99.90;;;;;;4915542;29;20445;-68
2022/07/22 11:29:35;;;;;;;12.73;11.50;;;21.10;99.90;;;;;;4910447;29;20495;-69
2022/07/22 11:32:04;;;;;;;12.13;11.03;;;21.10;99.90;;;;;;4914918;29;20442;-70
2022/07/22 11:34:30;;;;;;;13.47;12.20;;;21.20;99.90;;;;;;4907893;29;20945;-71
2022/07/22 11:36:57;;;;;;;14.10;12.90;;;21.30;99.90;;;;;;4914874;29;20458;-71
2022/07/22 11:39:28;;;;;;;13.33;12.13;;;21.40;99.90;;;;;;4915072;29;20186;-71
2022/07/22 11:41:56;;;;;;;12.10;11.10;;;21.60;99.90;;;;;;4912187;29;20489;-69
2022/07/22 11:44:26;;;;;;;14.27;13.03;;;21.40;99.10;;;;;;4915218;29;20442;-67
2022/07/22 11:46:52;;;;;;;13.50;12.40;;;21.50;99.90;;;;;;4915338;29;20438;-67
2022/07/22 11:49:20;;;;;;;14.37;13.17;;;21.60;99.50;;;;;;4915619;29;20884;-68
2022/07/22 11:51:47;;;;;;;14.10;12.70;;;21.60;99.90;;;;;;4914660;29;20438;-68
2022/07/22 11:54:14;;;;;;;14.77;13.23;;;21.60;99.90;;;;;;4914372;29;20797;-69
2022/07/22 11:56:40;;;;;;;15.07;13.87;;;21.60;99.90;;;;;;4913779;29;20466;-67
2022/07/22 11:59:07;;;;;;;12.07;11.03;;;21.60;99.90;;;;;;4914068;29;20434;-68
2022/07/22 12:01:37;;;;;;;14.63;13.53;;;21.60;99.90;;;;;;4912747;29;20193;-67
2022/07/22 12:04:08;;;;;;;11.87;10.67;;;21.60;99.90;;;;;;4915924;29;20883;-68
2022/07/22 12:06:39;;;;;;;13.07;11.90;;;21.60;99.90;;;;;;4914630;29;20933;-67
2022/07/22 12:09:19;;;;;;;15.43;14.10;;;21.60;99.90;;;;;;4915143;29;20507;-67
2022/07/22 12:11:51;;;;;;;11.63;10.63;;;21.60;99.90;;;;;;4913109;29;20805;-68
2022/07/22 12:14:22;;;;;;;13.73;12.63;;;21.60;99.90;;;;;;4914466;29;20470;-67
2022/07/22 12:17:01;;;;;;;13.57;12.20;;;21.70;99.90;;;;;;4913852;29;20553;-67
2022/07/22 12:19:31;;;;;;;14.73;13.53;;;21.60;99.90;;;;;;4914968;29;20470;-66
2022/07/22 12:22:02;;;;;;;13.60;12.40;;;21.70;99.90;;;;;;4914845;29;20438;-68
2022/07/22 12:24:34;;;;;;;13.60;12.50;;;21.70;99.90;;;;;;4914684;29;20449;-68
2022/07/22 12:27:08;;;;;;;13.03;11.83;;;21.60;99.90;;;;;;4912970;29;20439;-68
2022/07/22 12:29:37;;;;;;;12.60;11.50;;;21.70;99.90;;;;;;4904703;29;20438;-68
2022/07/22 12:32:05;;;;;;;12.33;11.23;;;21.70;99.90;;;;;;4914723;29;20446;-68
2022/07/22 12:34:41;;;;;;;12.73;11.50;;;21.70;99.90;;;;;;4915284;29;20875;-68
2022/07/22 12:37:18;;;;;;;12.03;10.87;;;21.60;99.90;;;;;;4913576;29;20945;-68
2022/07/22 12:40:04;;;;;;;14.93;13.80;;;21.70;99.90;;;;;;4918295;29;20426;-68
2022/07/22 12:42:31;;;;;;;13.10;11.90;;;21.60;99.80;;;;;;4918124;29;20437;-73
2022/07/22 12:45:17;;;;;;;15.40;14.00;;;21.70;99.90;;;;;;4919308;29;20818;-68